Time;durP1;ratioP1;P1;durP2;ratioP2;P2;SDS_P1;SDS_P2;PMS_P1;PMS_P2;Temp;Humidity;BMP_temperature;BMP_pressure;BME280_temperature;BME280_humidity;BME280_pressure;Samples;Min_cycle;Max_cycle;Signal;HPM_P1;HPM_P2
2022/03/13 00:00:36;;;;;;;4.33;3.93;;;3.30;55.00;;;;;;4987614;28;20866;-70
2022/03/13 00:03:03;;;;;;;7.70;4.90;;;3.30;55.00;;;;;;5018236;28;20457;-71
2022/03/13 00:05:29;;;;;;;8.20;4.23;;;3.30;55.00;;;;;;5014968;28;20815;-71
2022/03/13 00:07:56;;;;;;;5.83;4.17;;;3.30;54.80;;;;;;5014792;28;20454;-71
2022/03/13 00:10:27;;;;;;;4.03;3.27;;;3.20;55.00;;;;;;5014575;28;20220;-71
2022/03/13 00:12:54;;;;;;;6.47;3.60;;;3.20;55.00;;;;;;5014370;28;20764;-71
2022/03/13 00:15:31;;;;;;;6.43;3.27;;;3.20;55.10;;;;;;5015868;28;20412;-71
2022/03/13 00:17:58;;;;;;;15.33;4.87;;;3.20;55.20;;;;;;5014127;28;20407;-71
2022/03/13 00:20:24;;;;;;;7.57;5.33;;;3.10;55.20;;;;;;5014249;28;20514;-70
2022/03/13 00:22:49;;;;;;;7.47;4.30;;;3.10;55.10;;;;;;5014356;28;20403;-70
2022/03/13 00:25:15;;;;;;;7.80;5.07;;;3.10;55.50;;;;;;5013752;28;20506;-70
2022/03/13 00:27:40;;;;;;;5.20;4.20;;;3.00;55.20;;;;;;5013807;28;20168;-70
2022/03/13 00:30:07;;;;;;;5.17;4.50;;;3.00;55.30;;;;;;5013555;28;20172;-70
2022/03/13 00:32:33;;;;;;;6.67;4.73;;;3.00;55.50;;;;;;5032737;23;20293;-67
2022/03/13 00:34:59;;;;;;;8.63;5.20;;;2.90;55.50;;;;;;5032851;28;20403;-67
2022/03/13 00:37:24;;;;;;;5.30;4.43;;;2.90;55.50;;;;;;5033006;28;20398;-67
2022/03/13 00:39:50;;;;;;;5.50;4.57;;;2.90;55.80;;;;;;5032698;28;20516;-67
2022/03/13 00:42:17;;;;;;;6.17;3.90;;;2.80;55.70;;;;;;5032659;28;20211;-66
2022/03/13 00:44:42;;;;;;;5.13;4.10;;;2.80;56.00;;;;;;5032837;28;20413;-66
2022/03/13 00:47:08;;;;;;;7.57;4.87;;;2.70;56.60;;;;;;5032741;28;20402;-66
2022/03/13 00:49:34;;;;;;;4.20;3.53;;;2.70;56.00;;;;;;5032579;28;20229;-67
2022/03/13 00:52:01;;;;;;;10.77;4.77;;;2.70;55.90;;;;;;5032589;28;20195;-66
2022/03/13 00:54:27;;;;;;;5.37;4.40;;;2.60;56.00;;;;;;5032445;28;20179;-66
2022/03/13 00:56:54;;;;;;;4.77;3.97;;;2.60;56.00;;;;;;5032448;28;20825;-67
2022/03/13 00:59:20;;;;;;;9.00;4.53;;;2.60;55.90;;;;;;5032642;28;20172;-67
2022/03/13 01:01:46;;;;;;;6.97;4.67;;;2.60;56.10;;;;;;5032356;28;20429;-66
2022/03/13 01:04:11;;;;;;;8.70;6.17;;;2.50;55.90;;;;;;5032513;28;20399;-66
2022/03/13 01:06:37;;;;;;;6.13;3.17;;;2.50;55.80;;;;;;5031763;28;20398;-65
2022/03/13 01:09:03;;;;;;;6.10;2.70;;;2.50;56.00;;;;;;5032198;28;20194;-66
2022/03/13 01:11:28;;;;;;;4.20;3.83;;;2.40;56.30;;;;;;5032610;28;20485;-66
2022/03/13 01:13:55;;;;;;;5.83;3.37;;;2.40;55.80;;;;;;5032389;28;20175;-67
2022/03/13 01:16:27;;;;;;;4.47;3.97;;;2.30;55.60;;;;;;5032192;28;20164;-65
2022/03/13 01:18:58;;;;;;;9.63;4.23;;;2.40;55.60;;;;;;5032392;28;20413;-65
2022/03/13 01:21:25;;;;;;;3.97;3.20;;;2.40;55.70;;;;;;5031974;28;20461;-66
2022/03/13 01:23:59;;;;;;;4.50;3.40;;;2.30;55.60;;;;;;5032014;28;20525;-65
2022/03/13 01:26:25;;;;;;;5.17;3.40;;;2.30;55.50;;;;;;5031970;28;20483;-65
2022/03/13 01:28:52;;;;;;;7.83;4.63;;;2.30;55.60;;;;;;5032102;28;20414;-65
2022/03/13 01:31:22;;;;;;;5.77;3.47;;;2.30;55.50;;;;;;5031626;28;20238;-65
2022/03/13 01:33:47;;;;;;;7.13;5.27;;;2.30;55.50;;;;;;5031706;28;20448;-67
2022/03/13 01:36:13;;;;;;;5.83;4.33;;;2.30;55.60;;;;;;5031649;28;20464;-66
2022/03/13 01:38:39;;;;;;;8.30;4.90;;;2.20;55.70;;;;;;5032017;28;20487;-65
2022/03/13 01:41:05;;;;;;;4.57;3.37;;;2.20;55.90;;;;;;5031816;28;20207;-66
2022/03/13 01:43:31;;;;;;;5.53;4.37;;;2.10;55.90;;;;;;5031699;28;20410;-66
2022/03/13 01:46:01;;;;;;;7.57;2.53;;;2.10;56.10;;;;;;5031612;28;20413;-65
2022/03/13 01:48:27;;;;;;;4.40;4.10;;;2.10;56.30;;;;;;5031706;28;20502;-65
2022/03/13 01:50:54;;;;;;;4.97;3.30;;;2.10;56.40;;;;;;5031383;28;20433;-65
2022/03/13 01:53:21;;;;;;;6.83;3.83;;;2.00;56.50;;;;;;5031562;28;20442;-64
2022/03/13 01:55:55;;;;;;;5.00;3.30;;;2.00;56.50;;;;;;5031578;28;20474;-67
2022/03/13 01:58:21;;;;;;;7.13;4.00;;;2.00;56.60;;;;;;5031979;28;20475;-65
2022/03/13 02:00:47;;;;;;;7.70;5.77;;;2.00;56.50;;;;;;5032018;28;20458;-66
2022/03/13 02:03:13;;;;;;;5.10;3.53;;;1.90;56.50;;;;;;5033613;28;20638;-67
2022/03/13 02:05:39;;;;;;;5.50;3.40;;;1.90;56.60;;;;;;5032085;28;20452;-66
2022/03/13 02:08:13;;;;;;;6.33;3.97;;;1.90;56.40;;;;;;5032218;28;20406;-65
2022/03/13 02:10:38;;;;;;;9.63;4.80;;;1.90;56.50;;;;;;5031203;28;20186;-66
2022/03/13 02:13:04;;;;;;;7.80;3.83;;;1.90;56.40;;;;;;5031199;28;20415;-66
2022/03/13 02:15:31;;;;;;;5.60;4.73;;;1.80;56.30;;;;;;5031052;28;20293;-66
2022/03/13 02:18:00;;;;;;;4.70;4.17;;;1.90;56.40;;;;;;5029496;28;20175;-66
2022/03/13 02:20:26;;;;;;;6.83;3.50;;;1.80;56.30;;;;;;5020322;28;21000;-66
2022/03/13 02:22:58;;;;;;;4.93;3.43;;;1.80;56.10;;;;;;5023190;28;20483;-66
2022/03/13 02:25:24;;;;;;;7.43;5.27;;;1.80;56.20;;;;;;5011298;28;20510;-66
2022/03/13 02:27:50;;;;;;;4.63;3.93;;;1.80;56.10;;;;;;5012914;28;20526;-66
2022/03/13 02:30:15;;;;;;;7.30;4.60;;;1.80;56.10;;;;;;5011291;28;20176;-66
2022/03/13 02:32:41;;;;;;;8.03;5.10;;;1.80;56.10;;;;;;5026075;28;20584;-65
2022/03/13 02:35:07;;;;;;;5.73;4.30;;;1.80;55.90;;;;;;5030433;28;20198;-66
2022/03/13 02:37:40;;;;;;;7.33;4.60;;;1.80;55.90;;;;;;5030985;28;20195;-66
2022/03/13 02:40:12;;;;;;;4.30;3.90;;;1.80;55.80;;;;;;5030632;28;20207;-65
2022/03/13 02:42:38;;;;;;;6.10;5.50;;;1.70;55.80;;;;;;5030827;28;20438;-66
2022/03/13 02:45:04;;;;;;;9.67;5.73;;;1.80;55.80;;;;;;5030794;28;20403;-66
2022/03/13 02:47:29;;;;;;;7.07;5.13;;;1.70;55.90;;;;;;5013314;28;20183;-66
2022/03/13 02:49:55;;;;;;;3.83;3.47;;;1.80;55.90;;;;;;5030824;28;20876;-66
2022/03/13 02:52:21;;;;;;;6.30;4.67;;;1.70;55.70;;;;;;5028174;28;20210;-66
2022/03/13 02:54:46;;;;;;;6.90;4.60;;;1.70;55.80;;;;;;5011220;28;20470;-66
2022/03/13 02:57:14;;;;;;;7.07;4.37;;;1.70;55.80;;;;;;5011134;28;20188;-66
2022/03/13 02:59:39;;;;;;;3.50;3.20;;;1.70;55.90;;;;;;5010968;28;20465;-66
2022/03/13 03:02:05;;;;;;;6.30;3.93;;;1.70;55.90;;;;;;5010834;28;20439;-66
2022/03/13 03:04:31;;;;;;;6.67;5.90;;;1.70;55.90;;;;;;5011040;28;20174;-66
2022/03/13 03:07:03;;;;;;;3.43;3.13;;;1.70;55.80;;;;;;5009868;28;20509;-66
2022/03/13 03:09:30;;;;;;;6.70;6.03;;;1.70;55.80;;;;;;5030714;28;20164;-66
2022/03/13 03:11:57;;;;;;;8.30;5.30;;;1.70;55.90;;;;;;5030765;28;20430;-66
2022/03/13 03:14:23;;;;;;;5.33;4.77;;;1.70;56.10;;;;;;5030679;28;20824;-67
2022/03/13 03:16:48;;;;;;;6.23;3.73;;;1.70;55.90;;;;;;5030829;28;20403;-66
2022/03/13 03:19:14;;;;;;;11.27;4.63;;;1.70;55.80;;;;;;5030892;28;20163;-66
2022/03/13 03:21:40;;;;;;;5.63;4.27;;;1.70;55.90;;;;;;5030544;28;20772;-66
2022/03/13 03:24:20;;;;;;;5.23;4.07;;;1.70;55.80;;;;;;5030888;28;20409;-66
2022/03/13 03:26:46;;;;;;;6.50;3.03;;;1.70;55.70;;;;;;5034734;28;20675;-66
2022/03/13 03:29:12;;;;;;;8.50;4.50;;;1.60;55.70;;;;;;5030776;28;20417;-66
2022/03/13 03:31:44;;;;;;;8.23;5.20;;;1.70;55.90;;;;;;5033187;28;20457;-67
2022/03/13 03:34:11;;;;;;;7.90;3.87;;;1.60;55.90;;;;;;5034043;28;20511;-66
2022/03/13 03:36:46;;;;;;;11.70;4.70;;;1.60;56.10;;;;;;5034092;28;20411;-66
2022/03/13 03:39:12;;;;;;;6.90;4.27;;;1.60;56.10;;;;;;5034175;28;20437;-66
2022/03/13 03:41:39;;;;;;;3.97;3.50;;;1.60;56.10;;;;;;5034124;28;20462;-66
2022/03/13 03:44:06;;;;;;;14.77;5.47;;;1.60;56.30;;;;;;5034124;28;20424;-66
2022/03/13 03:46:31;;;;;;;5.53;5.10;;;1.50;56.30;;;;;;5033816;28;20437;-66
2022/03/13 03:48:57;;;;;;;4.97;4.53;;;1.50;56.20;;;;;;5034117;28;20442;-66
2022/03/13 03:51:22;;;;;;;7.77;3.30;;;1.60;56.30;;;;;;5033813;28;20280;-66
2022/03/13 03:53:48;;;;;;;9.60;5.00;;;1.60;56.10;;;;;;5033839;28;20171;-66
2022/03/13 03:56:13;;;;;;;4.53;4.13;;;1.50;56.00;;;;;;5033579;28;20176;-66
2022/03/13 03:58:39;;;;;;;5.73;3.87;;;1.50;56.00;;;;;;5033634;28;20585;-66
2022/03/13 04:01:04;;;;;;;6.97;3.93;;;1.50;56.20;;;;;;5033452;28;20211;-66
2022/03/13 04:03:29;;;;;;;11.53;3.53;;;1.50;56.30;;;;;;5033561;28;20168;-66
2022/03/13 04:05:55;;;;;;;6.60;4.97;;;1.40;56.40;;;;;;5033499;28;20176;-67
2022/03/13 04:08:20;;;;;;;5.90;4.73;;;1.40;56.60;;;;;;5033659;28;20262;-65
2022/03/13 04:10:46;;;;;;;14.70;5.07;;;1.30;56.70;;;;;;5033658;28;20538;-67
2022/03/13 04:13:11;;;;;;;9.67;4.97;;;1.30;56.60;;;;;;5033328;28;20308;-66
2022/03/13 04:15:37;;;;;;;5.10;4.63;;;1.30;56.90;;;;;;5033612;28;20651;-67
2022/03/13 04:18:02;;;;;;;5.80;4.70;;;1.30;57.00;;;;;;5033301;28;20195;-66
2022/03/13 04:20:28;;;;;;;7.23;3.30;;;1.30;57.00;;;;;;5033445;28;20227;-66
2022/03/13 04:22:54;;;;;;;3.80;3.20;;;1.20;57.00;;;;;;5033184;28;20633;-66
2022/03/13 04:25:20;;;;;;;4.77;4.37;;;1.20;57.10;;;;;;5033085;28;20405;-67
2022/03/13 04:27:45;;;;;;;10.30;3.97;;;1.20;57.20;;;;;;5033225;28;20164;-66
2022/03/13 04:30:11;;;;;;;5.00;4.63;;;1.20;57.30;;;;;;5033369;28;20171;-66
2022/03/13 04:32:37;;;;;;;3.87;2.80;;;1.20;57.10;;;;;;5032691;28;20207;-66
2022/03/13 04:35:02;;;;;;;5.33;4.33;;;1.20;57.10;;;;;;5033154;28;20438;-66
2022/03/13 04:37:28;;;;;;;6.17;5.50;;;1.10;57.20;;;;;;5033036;28;20630;-66
2022/03/13 04:39:54;;;;;;;4.17;3.90;;;1.10;57.30;;;;;;5032742;28;20184;-65
2022/03/13 04:42:19;;;;;;;7.13;3.47;;;1.10;57.40;;;;;;5031558;28;20441;-65
2022/03/13 04:44:46;;;;;;;7.93;4.37;;;1.10;57.50;;;;;;5033071;28;20211;-66
2022/03/13 04:47:11;;;;;;;4.17;3.53;;;1.10;57.20;;;;;;5032729;28;20176;-66
2022/03/13 04:49:37;;;;;;;3.77;3.47;;;1.00;57.30;;;;;;5032727;28;20422;-66
2022/03/13 04:52:03;;;;;;;6.10;3.63;;;1.00;57.50;;;;;;5032536;28;20195;-66
2022/03/13 04:54:28;;;;;;;4.30;3.93;;;1.00;57.40;;;;;;5032845;28;20206;-66
2022/03/13 04:56:54;;;;;;;7.53;4.13;;;1.00;57.40;;;;;;5032522;28;20410;-66
2022/03/13 04:59:19;;;;;;;4.67;3.23;;;1.00;57.50;;;;;;5032527;28;20168;-64
2022/03/13 05:01:46;;;;;;;7.67;3.63;;;1.00;57.50;;;;;;5032326;28;20229;-66
2022/03/13 05:04:12;;;;;;;2.70;2.50;;;0.90;57.50;;;;;;5014775;28;20163;-66
2022/03/13 05:06:40;;;;;;;5.63;4.10;;;0.90;57.60;;;;;;5032418;28;20403;-66
2022/03/13 05:09:06;;;;;;;4.10;3.07;;;0.90;57.60;;;;;;5032459;28;20650;-67
2022/03/13 05:11:32;;;;;;;6.10;4.67;;;0.90;57.60;;;;;;5032199;28;20465;-66
2022/03/13 05:13:57;;;;;;;10.13;5.00;;;0.90;57.60;;;;;;5032296;28;20452;-66
2022/03/13 05:16:22;;;;;;;7.03;3.83;;;0.90;57.80;;;;;;5032071;28;20178;-66
2022/03/13 05:18:48;;;;;;;3.80;2.93;;;0.90;57.70;;;;;;5032340;28;20647;-66
2022/03/13 05:21:14;;;;;;;4.93;3.30;;;0.90;57.90;;;;;;5032061;28;20206;-66
2022/03/13 05:23:39;;;;;;;4.63;3.70;;;0.90;57.90;;;;;;5032388;28;20254;-66
2022/03/13 05:26:05;;;;;;;10.70;5.43;;;0.80;57.90;;;;;;5032217;28;20192;-66
2022/03/13 05:28:30;;;;;;;8.97;3.97;;;0.80;58.10;;;;;;5031987;28;20164;-66
2022/03/13 05:30:56;;;;;;;4.33;2.80;;;0.90;58.00;;;;;;5031734;28;20560;-66
2022/03/13 05:33:22;;;;;;;10.17;4.60;;;0.80;57.80;;;;;;5032054;28;20171;-66
2022/03/13 05:35:47;;;;;;;14.40;4.30;;;0.80;57.70;;;;;;5031917;28;20411;-66
2022/03/13 05:38:13;;;;;;;6.17;3.80;;;0.80;57.60;;;;;;5032011;28;20251;-65
2022/03/13 05:40:41;;;;;;;4.70;4.07;;;0.80;57.80;;;;;;5031694;28;20252;-66
2022/03/13 05:43:06;;;;;;;4.53;4.10;;;0.90;57.50;;;;;;5031735;28;20179;-66
2022/03/13 05:45:32;;;;;;;6.20;4.07;;;0.90;57.60;;;;;;5031683;28;20873;-66
2022/03/13 05:48:00;;;;;;;4.60;4.10;;;0.90;57.40;;;;;;5032014;28;20542;-66
2022/03/13 05:50:28;;;;;;;3.60;3.30;;;0.90;57.30;;;;;;5031942;28;20168;-66
2022/03/13 05:52:55;;;;;;;5.27;4.30;;;0.90;57.30;;;;;;5032913;28;20438;-66
2022/03/13 05:55:22;;;;;;;11.37;4.47;;;0.90;57.40;;;;;;5033852;28;20413;-66
2022/03/13 05:57:48;;;;;;;8.03;4.80;;;1.00;57.40;;;;;;5033645;28;20410;-66
2022/03/13 06:00:15;;;;;;;4.50;4.10;;;1.00;57.40;;;;;;5031325;28;20885;-66
2022/03/13 06:02:44;;;;;;;6.00;5.60;;;1.00;57.10;;;;;;5031414;28;20462;-66
2022/03/13 06:05:15;;;;;;;5.13;4.63;;;1.00;57.20;;;;;;5031456;28;20402;-66
2022/03/13 06:07:40;;;;;;;7.90;5.40;;;1.00;57.30;;;;;;5031612;28;20418;-66
2022/03/13 06:10:06;;;;;;;7.20;4.10;;;1.10;57.30;;;;;;5031995;28;20418;-65
2022/03/13 06:12:33;;;;;;;10.00;5.73;;;1.20;57.10;;;;;;5031370;28;20738;-66
2022/03/13 06:14:59;;;;;;;5.30;4.80;;;1.20;57.00;;;;;;5031305;28;20429;-66
2022/03/13 06:17:25;;;;;;;7.73;3.90;;;1.30;56.90;;;;;;5031307;28;20459;-65
2022/03/13 06:19:51;;;;;;;6.17;4.73;;;1.50;56.60;;;;;;5013594;28;20887;-65
2022/03/13 06:22:19;;;;;;;3.93;3.20;;;1.80;56.40;;;;;;5031128;28;20509;-65
2022/03/13 06:24:45;;;;;;;6.33;3.47;;;2.40;55.70;;;;;;5031105;28;20900;-65
2022/03/13 06:27:10;;;;;;;5.13;4.63;;;3.10;54.70;;;;;;5031023;28;20460;-66
2022/03/13 06:29:40;;;;;;;7.77;5.10;;;3.70;53.60;;;;;;5031390;28;20448;-66
2022/03/13 06:32:06;;;;;;;5.50;4.33;;;4.00;52.40;;;;;;5055261;22;20216;-70
2022/03/13 06:34:32;;;;;;;5.63;4.83;;;3.90;52.20;;;;;;5012119;28;20481;-70
2022/03/13 06:36:58;;;;;;;5.90;3.57;;;3.90;52.10;;;;;;5012507;28;20403;-70
2022/03/13 06:39:24;;;;;;;10.20;4.93;;;4.00;52.10;;;;;;5012162;28;20406;-70
2022/03/13 06:41:51;;;;;;;7.40;4.60;;;4.20;52.20;;;;;;5011948;28;20463;-70
2022/03/13 06:44:16;;;;;;;6.90;4.20;;;4.50;52.10;;;;;;5012246;28;20176;-70
2022/03/13 06:46:42;;;;;;;4.87;4.13;;;5.00;50.50;;;;;;5011971;28;20865;-71
2022/03/13 06:49:07;;;;;;;6.80;4.40;;;5.60;50.10;;;;;;5012540;28;20579;-71
2022/03/13 06:51:33;;;;;;;11.63;5.17;;;5.50;49.30;;;;;;5011969;28;20192;-70
2022/03/13 06:53:59;;;;;;;5.23;4.73;;;5.10;50.00;;;;;;5012208;28;20244;-70
2022/03/13 06:56:25;;;;;;;6.80;4.83;;;5.40;50.00;;;;;;5014993;28;20180;-71
2022/03/13 06:58:50;;;;;;;5.47;4.97;;;5.80;49.50;;;;;;5012426;28;20415;-70
2022/03/13 07:01:16;;;;;;;8.10;6.00;;;6.40;48.80;;;;;;5011483;28;20591;-70
2022/03/13 07:03:42;;;;;;;5.77;4.20;;;6.60;47.50;;;;;;5011299;28;20590;-71
2022/03/13 07:06:08;;;;;;;6.83;4.13;;;6.10;48.10;;;;;;5013065;28;20173;-70
2022/03/13 07:08:34;;;;;;;8.60;4.47;;;6.40;48.20;;;;;;5014834;28;20494;-71
2022/03/13 07:11:01;;;;;;;8.97;5.50;;;6.10;48.10;;;;;;5014734;28;20176;-70
2022/03/13 07:13:27;;;;;;;9.63;5.50;;;6.60;47.60;;;;;;5014676;28;20558;-69
2022/03/13 07:15:55;;;;;;;6.50;4.10;;;6.80;46.80;;;;;;5014537;28;20439;-69
2022/03/13 07:18:20;;;;;;;5.67;4.50;;;6.70;46.50;;;;;;5014985;28;20788;-70
2022/03/13 07:20:47;;;;;;;8.77;4.67;;;6.40;47.00;;;;;;5014546;28;20512;-70
2022/03/13 07:23:13;;;;;;;9.73;4.83;;;6.30;47.00;;;;;;5014275;28;20243;-70
2022/03/13 07:25:38;;;;;;;11.00;4.27;;;6.60;47.30;;;;;;5014547;28;20433;-70
2022/03/13 07:28:05;;;;;;;7.37;4.40;;;7.20;47.20;;;;;;4997045;28;20507;-70
2022/03/13 07:30:32;;;;;;;5.20;3.67;;;7.60;45.50;;;;;;5014845;28;20172;-70
2022/03/13 07:32:58;;;;;;;5.57;3.90;;;8.30;44.80;;;;;;5014405;28;20457;-70
2022/03/13 07:35:23;;;;;;;9.67;5.27;;;8.80;43.90;;;;;;5015047;28;20439;-70
2022/03/13 07:37:49;;;;;;;10.40;5.47;;;9.20;43.50;;;;;;5014635;28;20949;-70
2022/03/13 07:40:14;;;;;;;12.50;4.73;;;9.20;42.80;;;;;;5014350;28;20612;-70
2022/03/13 07:42:40;;;;;;;10.30;4.60;;;9.10;42.20;;;;;;5014017;28;20729;-70
2022/03/13 07:45:06;;;;;;;10.13;4.83;;;9.80;42.90;;;;;;5014261;28;20247;-70
2022/03/13 07:47:31;;;;;;;5.00;4.20;;;9.70;41.70;;;;;;5014397;28;20608;-70
2022/03/13 07:49:57;;;;;;;12.47;6.00;;;9.40;41.10;;;;;;5014101;28;20407;-71
2022/03/13 07:52:23;;;;;;;7.37;4.70;;;9.70;41.80;;;;;;5014189;28;20215;-70
2022/03/13 07:54:49;;;;;;;7.10;4.43;;;9.80;40.70;;;;;;5014287;28;20172;-70
2022/03/13 07:57:14;;;;;;;4.80;4.40;;;9.90;40.60;;;;;;5014574;28;20423;-70
2022/03/13 07:59:40;;;;;;;7.10;4.40;;;10.00;40.50;;;;;;5014619;28;20513;-71
2022/03/13 08:02:06;;;;;;;9.20;5.07;;;9.90;40.30;;;;;;5015118;28;20323;-71
2022/03/13 08:04:32;;;;;;;4.87;4.40;;;10.30;40.10;;;;;;5014823;28;20195;-74
2022/03/13 08:06:57;;;;;;;19.67;11.47;;;9.90;40.10;;;;;;5014078;28;20414;-69
2022/03/13 08:09:22;;;;;;;9.30;5.87;;;10.70;47.70;;;;;;5013963;28;20169;-70
2022/03/13 08:11:48;;;;;;;5.87;4.03;;;10.50;39.30;;;;;;5014164;28;20199;-70
2022/03/13 08:14:13;;;;;;;5.73;4.13;;;10.30;39.30;;;;;;5014681;28;20229;-71
2022/03/13 08:16:39;;;;;;;7.27;4.93;;;10.30;39.20;;;;;;5016080;28;20695;-71
2022/03/13 08:19:05;;;;;;;7.50;4.67;;;10.90;38.80;;;;;;5015366;28;20222;-72
2022/03/13 08:21:31;;;;;;;7.20;4.93;;;11.40;38.00;;;;;;5012610;28;20567;-72
2022/03/13 08:23:58;;;;;;;8.20;5.00;;;10.70;38.00;;;;;;5013856;28;20424;-71
2022/03/13 08:26:23;;;;;;;6.77;4.40;;;10.40;37.20;;;;;;5013745;28;20419;-71
2022/03/13 08:28:49;;;;;;;5.57;4.63;;;10.80;37.60;;;;;;5013355;28;20510;-70
2022/03/13 08:31:14;;;;;;;5.57;4.33;;;11.20;37.20;;;;;;5013409;28;20179;-71
2022/03/13 08:33:45;;;;;;;4.67;4.17;;;11.40;37.20;;;;;;5013528;28;20222;-71
2022/03/13 08:36:11;;;;;;;8.17;5.70;;;11.30;37.30;;;;;;5014146;28;20217;-71
2022/03/13 08:38:37;;;;;;;7.23;4.77;;;11.50;37.80;;;;;;5014289;28;20506;-71
2022/03/13 08:41:02;;;;;;;6.67;4.00;;;11.50;37.00;;;;;;5014126;28;20484;-70
2022/03/13 08:43:28;;;;;;;6.30;4.87;;;11.60;36.80;;;;;;5015607;28;20180;-71
2022/03/13 08:45:53;;;;;;;6.27;4.60;;;11.60;35.90;;;;;;5014064;28;20243;-71
2022/03/13 08:48:19;;;;;;;5.27;3.87;;;11.70;36.10;;;;;;5013309;28;20180;-69
2022/03/13 08:50:44;;;;;;;7.33;5.00;;;12.00;36.20;;;;;;5013095;28;20566;-71
2022/03/13 08:53:10;;;;;;;6.50;4.17;;;12.50;35.60;;;;;;5013001;28;20224;-71
2022/03/13 08:55:35;;;;;;;6.23;4.67;;;12.40;35.00;;;;;;5012644;28;20188;-70
2022/03/13 08:58:01;;;;;;;6.90;4.60;;;12.10;34.20;;;;;;5013241;28;20672;-73
2022/03/13 09:00:27;;;;;;;6.03;4.53;;;12.60;35.00;;;;;;5012903;28;20193;-70
2022/03/13 09:02:53;;;;;;;10.63;4.77;;;12.50;34.60;;;;;;5012776;28;20197;-70
2022/03/13 09:05:19;;;;;;;4.50;3.57;;;11.90;33.20;;;;;;5012715;28;20403;-70
2022/03/13 09:07:44;;;;;;;6.63;3.80;;;11.50;33.20;;;;;;5013313;28;20410;-71
2022/03/13 09:10:11;;;;;;;7.10;4.80;;;11.10;33.60;;;;;;5017262;28;20412;-70
2022/03/13 09:12:37;;;;;;;9.60;4.87;;;10.60;33.90;;;;;;5020403;28;20203;-71
2022/03/13 09:15:05;;;;;;;5.40;4.23;;;10.80;34.10;;;;;;5015888;28;20434;-71
2022/03/13 09:17:31;;;;;;;5.20;3.40;;;10.40;34.00;;;;;;5015527;28;20427;-71
2022/03/13 09:19:56;;;;;;;7.57;4.60;;;11.20;33.80;;;;;;5012875;28;20813;-71
2022/03/13 09:22:22;;;;;;;5.03;3.40;;;10.90;33.60;;;;;;5012840;28;20180;-70
2022/03/13 09:24:49;;;;;;;8.37;4.57;;;11.00;33.80;;;;;;5012876;28;20614;-70
2022/03/13 09:27:14;;;;;;;4.40;4.00;;;11.00;34.20;;;;;;5012922;28;20487;-71
2022/03/13 09:29:40;;;;;;;6.23;4.20;;;11.80;33.50;;;;;;5016255;28;20853;-69
2022/03/13 09:32:06;;;;;;;7.00;4.73;;;11.90;33.40;;;;;;5012589;28;20200;-69
2022/03/13 09:34:32;;;;;;;6.40;3.53;;;11.60;33.20;;;;;;5012120;28;20177;-69
2022/03/13 09:36:59;;;;;;;6.30;4.50;;;11.40;33.20;;;;;;5012414;28;20418;-70
2022/03/13 09:39:25;;;;;;;5.87;5.23;;;11.20;33.70;;;;;;5012386;28;20172;-70
2022/03/13 09:41:51;;;;;;;5.23;4.07;;;11.00;33.60;;;;;;5011989;28;21075;-70
2022/03/13 09:44:17;;;;;;;7.00;4.23;;;10.40;33.50;;;;;;5012112;28;20494;-70
2022/03/13 09:46:42;;;;;;;3.83;3.23;;;10.30;34.00;;;;;;5012034;28;20750;-70
2022/03/13 09:49:08;;;;;;;4.73;3.40;;;10.40;34.10;;;;;;5012109;28;20596;-71
2022/03/13 09:51:34;;;;;;;7.93;3.30;;;10.30;34.50;;;;;;5012147;28;20207;-71
2022/03/13 09:54:01;;;;;;;4.17;3.53;;;10.60;34.20;;;;;;5012614;28;20180;-70
2022/03/13 09:56:26;;;;;;;5.60;3.63;;;10.50;34.20;;;;;;5013638;28;20207;-71
2022/03/13 09:58:52;;;;;;;5.20;2.93;;;10.30;34.00;;;;;;5014419;28;20914;-71
2022/03/13 10:01:17;;;;;;;4.67;4.27;;;9.90;34.90;;;;;;5015669;28;20212;-71
2022/03/13 10:03:43;;;;;;;5.43;3.40;;;9.80;35.00;;;;;;5026071;28;20952;-71
2022/03/13 10:06:09;;;;;;;3.97;3.30;;;9.70;35.40;;;;;;5034424;28;20225;-72
2022/03/13 10:08:34;;;;;;;5.37;3.30;;;9.70;35.70;;;;;;5034061;28;20171;-71
2022/03/13 10:11:03;;;;;;;3.37;3.07;;;9.60;35.60;;;;;;5035019;28;20175;-70
2022/03/13 10:13:46;;;;;;;16.13;3.33;;;9.60;35.80;;;;;;5035302;28;20267;-71
2022/03/13 10:16:36;;;;;;;7.70;3.30;;;9.80;35.50;;;;;;5034776;28;20497;-71
2022/03/13 10:19:15;;;;;;;4.53;2.67;;;9.80;34.70;;;;;;5034254;28;20414;-70
2022/03/13 10:22:09;;;;;;;5.80;4.20;;;9.90;34.70;;;;;;5031518;28;20463;-70
2022/03/13 10:24:42;;;;;;;3.40;2.63;;;10.10;33.70;;;;;;5013518;28;20447;-70
2022/03/13 10:27:16;;;;;;;4.67;2.63;;;9.80;32.60;;;;;;5012031;28;20815;-71
2022/03/13 10:29:43;;;;;;;2.97;2.67;;;9.80;32.30;;;;;;5015651;28;20928;-70
2022/03/13 10:32:09;;;;;;;3.30;2.97;;;9.80;31.70;;;;;;5033840;28;20474;-71
2022/03/13 10:34:36;;;;;;;2.87;2.67;;;9.80;31.80;;;;;;5034276;28;20410;-70
2022/03/13 10:37:02;;;;;;;5.60;3.00;;;9.90;32.10;;;;;;5020155;28;20414;-71
2022/03/13 10:39:29;;;;;;;4.90;3.03;;;9.90;32.20;;;;;;5014208;28;20402;-70
2022/03/13 10:42:02;;;;;;;5.87;2.50;;;9.90;31.70;;;;;;5016701;28;20456;-71
2022/03/13 10:44:30;;;;;;;4.60;2.87;;;10.00;31.00;;;;;;5015603;28;20399;-70
2022/03/13 10:46:59;;;;;;;4.53;3.00;;;10.10;30.80;;;;;;5015257;28;20492;-70
2022/03/13 10:49:41;;;;;;;4.03;2.90;;;10.10;30.70;;;;;;5015266;28;20420;-71
2022/03/13 10:52:29;;;;;;;2.90;2.17;;;10.40;31.00;;;;;;5015222;28;20501;-70
2022/03/13 10:55:17;;;;;;;3.40;2.73;;;10.30;31.00;;;;;;4997676;28;20789;-71
2022/03/13 10:57:56;;;;;;;3.03;2.57;;;10.30;31.50;;;;;;5014772;28;20450;-71
2022/03/13 11:00:23;;;;;;;2.40;2.20;;;10.60;32.30;;;;;;5015217;28;20454;-71
2022/03/13 11:02:49;;;;;;;6.37;3.00;;;10.70;32.50;;;;;;5015096;28;20843;-71
2022/03/13 11:05:15;;;;;;;4.40;3.13;;;10.80;32.40;;;;;;5015416;28;20471;-71
2022/03/13 11:07:41;;;;;;;4.13;3.47;;;10.60;32.10;;;;;;5014944;28;20419;-71
2022/03/13 11:10:09;;;;;;;4.97;2.63;;;10.60;32.50;;;;;;5014909;28;20606;-72
2022/03/13 11:12:35;;;;;;;3.77;3.40;;;10.50;32.10;;;;;;5014547;28;20204;-69
2022/03/13 11:15:02;;;;;;;6.03;2.80;;;10.40;32.20;;;;;;5015000;28;20419;-69
2022/03/13 11:17:33;;;;;;;4.20;3.10;;;10.50;32.20;;;;;;5014954;28;20415;-71
2022/03/13 11:20:00;;;;;;;3.13;2.53;;;10.50;31.90;;;;;;5014995;28;22364;-71
2022/03/13 11:22:28;;;;;;;6.10;3.03;;;10.50;32.00;;;;;;5014958;28;20427;-71
2022/03/13 11:24:57;;;;;;;2.70;2.50;;;10.60;32.40;;;;;;5014761;28;20517;-70
2022/03/13 11:27:25;;;;;;;4.47;2.33;;;10.70;32.50;;;;;;5015209;28;20935;-71
2022/03/13 11:29:53;;;;;;;6.33;3.07;;;10.80;32.30;;;;;;5019729;28;20516;-71
2022/03/13 11:32:40;;;;;;;7.03;3.53;;;10.80;31.90;;;;;;5016425;28;20484;-71
2022/03/13 11:35:15;;;;;;;4.13;3.37;;;11.00;31.80;;;;;;5014889;28;20417;-70
2022/03/13 11:37:45;;;;;;;4.67;3.13;;;11.00;31.80;;;;;;5014656;28;20945;-70
2022/03/13 11:40:13;;;;;;;3.83;3.10;;;10.90;31.50;;;;;;5014432;28;20534;-71
2022/03/13 11:42:54;;;;;;;3.67;3.27;;;10.90;31.20;;;;;;5014478;28;20423;-71
2022/03/13 11:45:29;;;;;;;3.77;2.90;;;11.10;31.30;;;;;;5014333;28;20476;-70
2022/03/13 11:48:17;;;;;;;4.47;3.13;;;11.10;31.90;;;;;;5014401;28;20434;-71
2022/03/13 11:50:54;;;;;;;6.70;3.97;;;11.30;32.50;;;;;;5004628;28;20831;-71
2022/03/13 11:53:27;;;;;;;5.00;3.60;;;11.10;32.30;;;;;;5014879;28;20956;-71
2022/03/13 11:56:27;;;;;;;4.03;3.63;;;11.20;33.10;;;;;;5014195;28;20502;-70
2022/03/13 11:58:55;;;;;;;3.87;3.47;;;11.30;34.10;;;;;;4991269;28;20447;-70
2022/03/13 12:01:31;;;;;;;6.97;3.67;;;11.40;34.40;;;;;;4994558;28;20539;-70
2022/03/13 12:04:09;;;;;;;3.97;3.33;;;11.40;33.90;;;;;;4994825;28;20590;-71
2022/03/13 12:06:56;;;;;;;8.83;4.60;;;11.30;35.40;;;;;;4996029;28;20863;-71
2022/03/13 12:09:30;;;;;;;5.23;4.30;;;11.40;36.20;;;;;;5007860;28;20442;-71
2022/03/13 12:12:06;;;;;;;4.70;3.93;;;11.60;36.40;;;;;;5014431;28;20431;-71
2022/03/13 12:14:53;;;;;;;4.63;3.27;;;11.40;36.00;;;;;;5014213;28;20833;-71
2022/03/13 12:17:20;;;;;;;4.20;3.80;;;11.30;36.40;;;;;;5014384;28;20839;-71
2022/03/13 12:19:46;;;;;;;5.87;4.20;;;11.30;36.30;;;;;;5015774;28;20412;-71
2022/03/13 12:22:14;;;;;;;8.47;4.70;;;11.40;36.70;;;;;;5016064;28;20423;-71
2022/03/13 12:24:50;;;;;;;10.30;4.07;;;11.50;36.50;;;;;;5014361;28;20422;-70
2022/03/13 12:27:17;;;;;;;6.07;4.37;;;11.40;36.30;;;;;;5014630;28;20791;-70
2022/03/13 12:29:47;;;;;;;5.60;4.80;;;11.50;36.30;;;;;;5018360;28;20467;-69
2022/03/13 12:32:12;;;;;;;5.07;4.57;;;11.60;36.10;;;;;;5035193;28;20764;-70
2022/03/13 12:34:41;;;;;;;8.73;3.90;;;11.40;36.00;;;;;;5033729;22;20589;-68
2022/03/13 12:37:09;;;;;;;6.67;4.30;;;11.50;36.30;;;;;;5002272;28;20181;-68
2022/03/13 12:39:47;;;;;;;4.50;3.40;;;11.40;35.90;;;;;;4993816;28;20927;-68
2022/03/13 12:42:19;;;;;;;4.33;3.37;;;11.50;35.70;;;;;;4993601;28;20404;-67
2022/03/13 12:45:00;;;;;;;7.13;4.40;;;11.60;35.80;;;;;;5009732;28;20952;-67
2022/03/13 12:47:31;;;;;;;5.73;4.33;;;11.50;36.10;;;;;;4995528;28;20415;-67
2022/03/13 12:49:57;;;;;;;6.27;4.13;;;11.70;36.50;;;;;;5013144;28;20810;-68
2022/03/13 12:52:23;;;;;;;6.73;3.80;;;11.80;36.30;;;;;;4995373;28;20423;-67
2022/03/13 12:54:54;;;;;;;6.47;3.83;;;11.80;36.10;;;;;;5012927;28;20411;-68